createdAt,value
2018-03-28T04:31:49.166Z,1.70
2018-03-28T04:34:18.145Z,1.30
2018-03-28T04:36:46.373Z,1.57
2018-03-28T04:39:14.803Z,1.40
2018-03-28T04:41:43.934Z,1.87
2018-03-28T04:44:12.173Z,1.77
2018-03-28T04:46:40.360Z,1.37
2018-03-28T04:49:08.577Z,1.80
2018-03-28T04:51:36.794Z,1.70
2018-03-28T04:54:05.273Z,2.03
2018-03-28T04:56:33.481Z,1.30
2018-03-28T04:59:02.450Z,1.43
2018-03-28T05:01:31.591Z,1.20
2018-03-28T05:03:59.807Z,1.50
2018-03-28T05:06:28.033Z,1.30
2018-03-28T05:08:56.305Z,1.30
2018-03-28T05:11:24.510Z,1.83
2018-03-28T05:13:52.749Z,1.30
2018-03-28T05:16:21.721Z,1.30
2018-03-28T05:18:51.448Z,1.40
2018-03-28T05:21:20.449Z,1.37
2018-03-28T05:23:49.506Z,1.30
2018-03-28T05:26:17.702Z,1.60
2018-03-28T05:28:46.712Z,1.40
2018-03-28T05:31:15.705Z,1.60
2018-03-28T05:33:44.699Z,1.40
2018-03-28T05:36:13.867Z,1.40
2018-03-28T05:38:42.061Z,1.80
2018-03-28T05:41:11.074Z,1.47
2018-03-28T05:43:39.269Z,1.37
2018-03-28T05:46:07.474Z,1.87
2018-03-28T05:48:36.110Z,1.37
2018-03-28T05:51:04.343Z,1.33
2018-03-28T05:53:32.542Z,1.30
2018-03-28T05:56:01.623Z,1.50
2018-03-28T05:58:29.817Z,1.70
2018-03-28T06:00:58.831Z,2.03
2018-03-28T06:03:27.777Z,2.20
2018-03-28T06:05:55.974Z,1.90
2018-03-28T06:08:24.952Z,1.83
2018-03-28T06:10:53.255Z,1.70
2018-03-28T06:13:22.327Z,1.80
2018-03-28T06:15:50.547Z,1.50
2018-03-28T06:18:18.809Z,2.40
2018-03-28T06:20:47.085Z,2.30
2018-03-28T06:23:15.323Z,1.87
2018-03-28T06:25:43.552Z,2.67
2018-03-28T06:28:11.823Z,1.50
2018-03-28T15:02:43.938Z,0.53
2018-03-28T15:05:12.150Z,0.67
2018-03-28T15:07:40.441Z,0.60
2018-03-28T15:10:08.645Z,0.70
2018-03-28T15:12:37.639Z,0.70
2018-03-28T15:15:06.175Z,0.63
2018-03-28T15:17:34.404Z,0.53
2018-03-28T15:20:02.626Z,0.50
2018-03-28T15:22:31.655Z,0.70
2018-03-28T15:25:00.672Z,0.60
2018-03-28T15:27:28.988Z,0.50
2018-03-28T15:29:57.209Z,0.60
2018-03-28T15:32:25.449Z,0.60
2018-03-28T15:34:53.773Z,0.60
2018-03-28T15:37:22.050Z,0.60
2018-03-28T15:39:50.379Z,0.67
2018-03-28T15:42:18.565Z,0.40
2018-03-28T15:44:47.562Z,0.53
2018-03-28T15:47:16.566Z,0.50
2018-03-28T15:49:45.574Z,0.60
2018-03-28T15:52:13.914Z,0.40
2018-03-28T15:54:42.103Z,0.60
2018-03-28T15:57:11.117Z,0.50
2018-03-28T15:59:39.470Z,0.67
2018-03-28T16:02:07.676Z,0.67
2018-03-28T16:04:35.949Z,0.60
2018-03-28T16:07:04.184Z,0.60
2018-03-28T16:09:32.401Z,1.00
2018-03-28T16:12:00.641Z,0.60
2018-03-28T16:14:28.961Z,0.90
2018-03-28T16:16:57.191Z,0.80
2018-03-28T16:19:25.536Z,0.60
2018-03-28T16:21:55.486Z,0.63
2018-03-28T16:24:23.684Z,0.80
2018-03-28T16:26:52.688Z,0.70
2018-03-28T16:29:21.671Z,0.80
2018-03-28T16:31:50.697Z,0.50
2018-03-28T16:34:18.922Z,0.60
2018-03-28T16:36:47.157Z,0.80
2018-03-28T16:39:16.002Z,0.67
2018-03-28T16:41:44.876Z,0.67
2018-03-28T16:44:13.087Z,0.70
2018-03-28T16:46:41.293Z,0.60
2018-03-28T16:49:09.541Z,1.00
2018-03-28T16:51:37.880Z,0.50
2018-03-28T16:54:06.087Z,0.60
2018-03-28T16:56:35.084Z,0.70
2018-03-28T16:59:04.247Z,0.63
2018-03-28T17:01:32.523Z,0.80
2018-03-28T17:04:01.002Z,0.50
2018-03-28T17:06:29.236Z,0.50
2018-03-28T17:08:57.488Z,0.60
2018-03-28T17:11:26.568Z,0.70
2018-03-28T17:13:54.734Z,0.60
2018-03-28T17:16:23.858Z,0.60
2018-03-28T17:18:52.091Z,0.63
2018-03-28T17:21:20.297Z,0.57
2018-03-28T17:23:49.295Z,0.50
2018-03-28T17:26:18.265Z,0.43
2018-03-28T17:28:46.538Z,0.60
2018-03-28T17:31:14.702Z,0.70
2018-03-28T17:33:42.937Z,0.77
2018-03-28T17:36:11.205Z,0.60
2018-03-28T17:38:39.543Z,0.57
2018-03-28T17:41:07.727Z,0.60
2018-03-28T17:43:35.992Z,1.07
2018-03-28T17:46:04.206Z,0.50
2018-03-28T17:48:32.477Z,0.60
2018-03-28T17:51:01.457Z,1.00
2018-03-28T17:53:30.461Z,0.80
2018-03-28T17:55:59.536Z,0.73
2018-03-28T17:58:27.733Z,0.70
2018-03-28T18:00:56.721Z,0.70
2018-03-28T18:03:25.734Z,0.60
2018-03-28T18:05:54.001Z,1.00
2018-03-28T18:08:22.966Z,1.90
2018-03-28T18:10:51.230Z,0.60
2018-03-28T18:13:19.477Z,0.90
2018-03-28T18:15:47.693Z,0.50
2018-03-28T18:18:16.066Z,1.10
2018-03-28T18:20:44.265Z,1.20
2018-03-28T18:23:13.342Z,1.50
2018-03-28T18:25:41.586Z,0.90
2018-03-28T18:28:09.849Z,0.83
2018-03-28T18:30:38.103Z,0.70
2018-03-28T18:33:07.122Z,0.80
2018-03-28T18:35:35.445Z,0.80
2018-03-28T18:38:03.665Z,0.77
2018-03-28T18:40:32.080Z,1.27
2018-03-28T18:43:01.066Z,0.80
2018-03-28T18:45:29.364Z,0.60
2018-03-28T18:47:57.589Z,0.70
2018-03-28T18:50:25.789Z,0.60
2018-03-28T18:52:54.087Z,0.50
2018-03-28T18:55:22.313Z,0.50
2018-03-28T18:57:51.270Z,0.50
2018-03-28T19:00:20.250Z,0.50
2018-03-28T19:02:48.530Z,0.50
2018-03-28T19:05:16.735Z,0.50
2018-03-28T19:07:44.970Z,0.80
2018-03-28T19:10:13.182Z,0.80
2018-03-28T19:12:42.277Z,0.80
2018-03-28T19:15:10.744Z,0.70
2018-03-28T19:17:39.051Z,0.50
2018-03-28T19:20:07.361Z,0.57
2018-03-28T19:22:35.659Z,0.80
2018-03-28T19:25:03.866Z,0.60
2018-03-28T19:27:32.120Z,0.70
2018-03-28T19:30:00.314Z,0.80
2018-03-28T19:32:28.612Z,0.60
2018-03-28T19:34:57.666Z,0.90
2018-03-28T19:37:25.829Z,0.70
2018-03-28T19:39:54.083Z,0.70
2018-03-28T19:42:22.334Z,0.60
2018-03-28T19:44:50.574Z,0.70
2018-03-28T19:47:20.158Z,0.60
2018-03-28T19:49:48.332Z,0.60
2018-03-28T19:52:16.615Z,0.60
2018-03-28T19:54:45.746Z,0.60
2018-03-28T19:57:13.984Z,0.60
2018-03-28T19:59:42.260Z,0.60
2018-03-28T20:02:10.665Z,0.70
2018-03-28T20:04:39.913Z,0.60
2018-03-28T20:07:09.781Z,0.60
2018-03-28T20:09:38.635Z,0.67
2018-03-28T20:12:08.138Z,0.63
2018-03-28T20:14:36.843Z,0.63
2018-03-28T20:17:05.150Z,0.60
2018-03-28T20:19:33.357Z,0.80
2018-03-28T20:22:01.599Z,0.60
2018-03-28T20:24:29.872Z,0.60
2018-03-28T20:26:58.138Z,0.70
2018-03-28T20:29:27.324Z,0.70
2018-03-28T20:31:55.622Z,0.70
2018-03-28T20:34:23.843Z,0.60
2018-03-28T20:36:52.133Z,0.80
2018-03-28T20:39:20.435Z,0.70
2018-03-28T20:41:49.659Z,0.60
2018-03-28T20:44:17.896Z,0.50
2018-03-28T20:46:46.918Z,0.60
2018-03-28T20:49:15.272Z,0.43
2018-03-28T20:51:43.592Z,0.60
2018-03-28T20:54:11.833Z,0.70
2018-03-28T20:56:40.083Z,0.77
2018-03-28T20:59:09.540Z,0.50
2018-03-28T21:01:37.837Z,0.70
2018-03-28T21:04:06.140Z,0.70
2018-03-28T21:06:34.314Z,0.60
2018-03-28T21:09:02.689Z,0.63
2018-03-28T21:11:30.909Z,0.73
2018-03-28T21:13:59.266Z,0.50
2018-03-28T21:16:27.558Z,0.63
2018-03-28T21:18:55.929Z,0.53
2018-03-28T21:21:24.176Z,0.80
2018-03-28T21:23:52.498Z,0.70
2018-03-28T21:26:20.723Z,0.50
2018-03-28T21:28:48.910Z,0.70
2018-03-28T21:31:17.893Z,0.60
2018-03-28T21:33:46.994Z,0.73
2018-03-28T21:36:15.355Z,0.63
2018-03-28T21:38:43.638Z,0.70
2018-03-28T21:41:11.845Z,0.90
2018-03-28T21:43:40.077Z,0.80
2018-03-28T21:46:08.325Z,0.70
2018-03-28T21:48:36.749Z,0.70
2018-03-28T21:51:04.987Z,0.87
2018-03-28T21:53:33.226Z,0.93
2018-03-28T21:56:02.317Z,0.80
2018-03-28T21:58:31.311Z,0.90
2018-03-28T22:01:00.380Z,0.60
2018-03-28T22:06:27.075Z,0.70
2018-03-28T22:08:55.293Z,0.50
2018-03-28T22:11:23.527Z,0.60
2018-03-28T22:13:52.296Z,0.60
2018-03-28T22:16:21.196Z,0.63
2018-03-28T22:18:50.772Z,0.60
2018-03-28T22:21:18.979Z,0.70
2018-03-28T22:23:47.969Z,0.73
2018-03-28T22:26:16.954Z,0.93
2018-03-28T22:28:45.958Z,0.80
2018-03-28T22:31:15.133Z,0.70
2018-03-28T22:33:43.343Z,0.87
2018-03-28T22:36:12.350Z,0.80
2018-03-28T22:38:40.610Z,0.93
2018-03-28T22:41:08.833Z,0.80
2018-03-28T22:43:37.085Z,0.87
